In Rescue
 
Open Full Screen Window  High Contrast Mode
Wind Gusting 17 knots
10
May 27, 2024 1:56 PM EDT
Weather Information
Wind Direction
  230 °
Wind Speed
  10 kt (12 mph)
Wind Gust
  17 kt (20 mph)
Altimeter
29.64 in
Visibility
10 SM
Temperature
22° C
72° F
Dewpoint
15° C
59° F
Humidity
65%
Sky Condition
Broken @ 3,500 ft
Broken @ 2,900 ft
Broken @ 2,300 ft
MVFR

METAR KPOV 271756Z AUTO 23010G17KT 10SM BKN023 BKN029 BKN035 22/15 A2964 RMK AO2 T02230152 PWINO

FAA Disclaimer: The data displayed is for advisory purposes only and is not to be used for flight planning or operations.